Time;durP1;ratioP1;P1;durP2;ratioP2;P2;SDS_P1;SDS_P2;PMS_P1;PMS_P2;Temp;Humidity;BMP_temperature;BMP_pressure;BME280_temperature;BME280_humidity;BME280_pressure;Samples;Min_cycle;Max_cycle;Signal;HPM_P1;HPM_P2
2023/04/20 00:00:00;;;;;;;4.65;2.47;;;;;;;;;;5074687;28;20021;-83
2023/04/20 00:02:25;;;;;;;4.30;2.88;;;;;;;;;;5074055;28;20366;-83
2023/04/20 00:04:51;;;;;;;5.68;3.30;;;;;;;;;;5073712;28;20106;-81
2023/04/20 00:07:17;;;;;;;4.63;3.15;;;;;;;;;;5075806;28;20105;-84
2023/04/20 00:09:42;;;;;;;4.25;2.47;;;;;;;;;;5073515;28;20069;-83
2023/04/20 00:12:08;;;;;;;4.20;2.55;;;;;;;;;;5075463;28;20024;-85
2023/04/20 00:14:33;;;;;;;3.85;2.65;;;;;;;;;;5075170;28;20035;-83
2023/04/20 00:16:58;;;;;;;2.33;1.95;;;;;;;;;;5075858;28;20020;-84
2023/04/20 00:19:27;;;;;;;4.10;2.90;;;;;;;;;;5075246;28;20028;-83
2023/04/20 00:21:52;;;;;;;3.72;2.63;;;;;;;;;;5074923;28;20481;-84
2023/04/20 00:24:18;;;;;;;4.15;2.67;;;;;;;;;;5075336;28;20028;-83
2023/04/20 00:26:43;;;;;;;4.03;2.70;;;;;;;;;;5073063;28;20106;-85
2023/04/20 00:29:09;;;;;;;3.97;2.22;;;;;;;;;;5074838;28;20031;-84
2023/04/20 00:31:34;;;;;;;8.40;2.47;;;;;;;;;;5074699;28;20273;-85
2023/04/20 00:34:00;;;;;;;3.50;2.70;;;;;;;;;;5076397;28;20476;-83
2023/04/20 00:36:25;;;;;;;5.68;3.58;;;;;;;;;;5075099;28;20029;-86
2023/04/20 00:38:51;;;;;;;3.58;2.40;;;;;;;;;;5074760;28;20040;-83
2023/04/20 00:41:16;;;;;;;3.25;2.38;;;;;;;;;;5073594;28;20384;-85
2023/04/20 00:43:53;;;;;;;4.22;3.13;;;;;;;;;;5074167;28;20025;-83
2023/04/20 00:46:21;;;;;;;4.47;2.38;;;;;;;;;;5074863;28;20098;-85
2023/04/20 00:48:47;;;;;;;4.60;3.35;;;;;;;;;;5076509;28;20032;-85
2023/04/20 00:51:13;;;;;;;3.72;3.20;;;;;;;;;;5073273;28;20020;-85
2023/04/20 00:53:39;;;;;;;4.72;2.47;;;;;;;;;;5076482;28;20464;-83
2023/04/20 00:56:06;;;;;;;3.85;2.42;;;;;;;;;;5074549;28;20032;-84
2023/04/20 00:58:32;;;;;;;6.75;3.13;;;;;;;;;;5074991;28;20028;-83
2023/04/20 01:00:57;;;;;;;2.47;2.15;;;;;;;;;;5077402;28;20032;-84
2023/04/20 01:03:23;;;;;;;5.05;2.42;;;;;;;;;;5074236;28;20098;-83
2023/04/20 01:05:49;;;;;;;3.15;2.45;;;;;;;;;;5073311;28;20032;-84
2023/04/20 01:08:14;;;;;;;3.22;2.88;;;;;;;;;;5075052;28;20020;-84
2023/04/20 01:10:40;;;;;;;4.90;2.42;;;;;;;;;;5075763;28;20025;-84
2023/04/20 01:13:05;;;;;;;9.77;3.53;;;;;;;;;;5075006;28;20025;-84
2023/04/20 01:15:31;;;;;;;4.72;2.80;;;;;;;;;;5072927;28;20051;-82
2023/04/20 01:17:56;;;;;;;4.30;2.67;;;;;;;;;;5074528;28;20423;-84
2023/04/20 01:20:22;;;;;;;3.88;2.05;;;;;;;;;;5074364;28;20059;-84
2023/04/20 01:22:54;;;;;;;5.70;3.38;;;;;;;;;;5074736;28;20476;-84
2023/04/20 01:25:20;;;;;;;3.75;2.92;;;;;;;;;;5071281;28;20111;-84
2023/04/20 01:27:46;;;;;;;4.25;3.20;;;;;;;;;;5073975;28;20472;-83
2023/04/20 01:30:13;;;;;;;5.88;2.63;;;;;;;;;;5073697;28;20031;-82
2023/04/20 01:32:39;;;;;;;3.72;2.47;;;;;;;;;;5072621;28;20464;-85
2023/04/20 01:35:05;;;;;;;4.97;3.30;;;;;;;;;;5073338;28;20043;-83
2023/04/20 01:37:31;;;;;;;4.25;2.10;;;;;;;;;;5072335;28;20017;-85
2023/04/20 01:39:57;;;;;;;4.68;2.80;;;;;;;;;;5073153;28;20028;-82
2023/04/20 01:42:23;;;;;;;6.25;3.15;;;;;;;;;;5072552;28;20393;-82
2023/04/20 01:44:48;;;;;;;4.38;2.17;;;;;;;;;;5071624;28;20543;-82
2023/04/20 01:47:14;;;;;;;4.30;3.08;;;;;;;;;;5073329;28;20116;-83
2023/04/20 01:49:39;;;;;;;5.82;3.35;;;;;;;;;;5072033;28;20415;-85
2023/04/20 01:52:05;;;;;;;5.13;2.90;;;;;;;;;;5074253;28;20027;-82
2023/04/20 01:54:31;;;;;;;5.85;3.85;;;;;;;;;;5071984;28;20094;-84
2023/04/20 01:56:56;;;;;;;9.05;2.85;;;;;;;;;;5073333;28;20024;-85
2023/04/20 01:59:22;;;;;;;3.65;2.63;;;;;;;;;;5072307;28;20088;-85
2023/04/20 02:01:48;;;;;;;5.35;3.40;;;;;;;;;;5073076;28;20039;-84
2023/04/20 02:04:13;;;;;;;5.13;3.78;;;;;;;;;;5070940;28;20032;-84
2023/04/20 02:06:39;;;;;;;6.55;4.35;;;;;;;;;;5070397;28;20029;-82
2023/04/20 02:09:05;;;;;;;4.85;3.00;;;;;;;;;;5072885;28;20024;-84
2023/04/20 02:11:30;;;;;;;8.77;2.60;;;;;;;;;;5072764;28;20112;-84
2023/04/20 02:13:56;;;;;;;4.93;3.40;;;;;;;;;;5070326;28;20032;-83
2023/04/20 02:16:22;;;;;;;5.05;2.90;;;;;;;;;;5072067;28;20028;-83
2023/04/20 02:18:48;;;;;;;5.50;3.42;;;;;;;;;;5071681;28;20119;-84
2023/04/20 02:21:13;;;;;;;3.78;2.92;;;;;;;;;;5070632;28;20048;-84
2023/04/20 02:23:39;;;;;;;5.18;3.30;;;;;;;;;;5069912;28;20379;-83
2023/04/20 02:26:05;;;;;;;8.73;3.88;;;;;;;;;;5070923;28;20032;-82
2023/04/20 02:28:30;;;;;;;6.82;3.78;;;;;;;;;;5071099;28;20028;-84
2023/04/20 02:30:56;;;;;;;4.57;3.67;;;;;;;;;;5071320;28;20020;-82
2023/04/20 02:33:21;;;;;;;5.53;3.20;;;;;;;;;;5070842;28;20058;-83
2023/04/20 02:35:47;;;;;;;3.80;2.80;;;;;;;;;;5070834;28;20031;-83
2023/04/20 02:38:13;;;;;;;5.45;2.95;;;;;;;;;;5071917;28;20025;-84
2023/04/20 02:40:38;;;;;;;5.82;2.70;;;;;;;;;;5070247;28;20464;-83
2023/04/20 02:43:04;;;;;;;4.72;3.20;;;;;;;;;;5072604;28;20039;-83
2023/04/20 02:45:29;;;;;;;5.40;2.92;;;;;;;;;;5072442;28;20040;-83
2023/04/20 02:47:56;;;;;;;12.80;3.10;;;;;;;;;;5069986;28;20040;-83
2023/04/20 02:50:21;;;;;;;10.43;3.20;;;;;;;;;;5070884;28;20027;-83
2023/04/20 02:52:47;;;;;;;6.43;3.45;;;;;;;;;;5071294;28;20032;-82
2023/04/20 02:55:12;;;;;;;3.28;2.50;;;;;;;;;;5071013;28;20439;-82
2023/04/20 02:57:38;;;;;;;5.13;3.45;;;;;;;;;;5069726;28;20024;-82
2023/04/20 03:00:04;;;;;;;2.00;1.60;;;;;;;;;;5072773;28;20050;-84
2023/04/20 03:02:29;;;;;;;6.38;3.25;;;;;;;;;;5070064;28;20025;-83
2023/04/20 03:04:55;;;;;;;8.40;3.60;;;;;;;;;;5070458;28;20043;-82
2023/04/20 03:07:21;;;;;;;7.93;3.70;;;;;;;;;;5071175;28;20027;-83
2023/04/20 03:09:46;;;;;;;4.97;3.28;;;;;;;;;;5069948;28;20048;-85
2023/04/20 03:12:12;;;;;;;6.10;3.90;;;;;;;;;;5068395;28;20031;-82
2023/04/20 03:14:37;;;;;;;6.22;3.30;;;;;;;;;;5069496;28;20058;-83
2023/04/20 03:17:03;;;;;;;4.60;3.28;;;;;;;;;;5071162;28;20028;-84
2023/04/20 03:19:28;;;;;;;3.22;2.38;;;;;;;;;;5068258;28;20107;-83
2023/04/20 03:21:54;;;;;;;5.43;2.70;;;;;;;;;;5071035;28;20055;-83
2023/04/20 03:24:21;;;;;;;3.10;1.95;;;;;;;;;;5069982;28;20111;-84
2023/04/20 03:26:46;;;;;;;5.78;2.67;;;;;;;;;;5075555;28;20078;-82
2023/04/20 03:29:11;;;;;;;5.53;3.42;;;;;;;;;;5076609;28;20028;-83
2023/04/20 03:31:37;;;;;;;4.90;3.22;;;;;;;;;;5075303;28;20499;-82
2023/04/20 03:34:03;;;;;;;4.82;2.47;;;;;;;;;;5077228;28;20073;-83
2023/04/20 03:36:29;;;;;;;6.07;2.75;;;;;;;;;;5074769;28;20031;-82
2023/04/20 03:38:54;;;;;;;4.55;2.90;;;;;;;;;;5076009;28;20488;-82
2023/04/20 03:41:21;;;;;;;5.43;3.55;;;;;;;;;;5075444;28;20388;-84
2023/04/20 03:43:46;;;;;;;2.97;1.35;;;;;;;;;;5076647;28;20024;-84
2023/04/20 03:46:11;;;;;;;5.97;2.80;;;;;;;;;;5072371;28;20044;-82
2023/04/20 03:48:37;;;;;;;5.60;3.13;;;;;;;;;;5074262;28;20029;-82
2023/04/20 03:51:02;;;;;;;3.25;2.35;;;;;;;;;;5075546;28;20027;-85
2023/04/20 03:53:28;;;;;;;4.45;2.83;;;;;;;;;;5074796;28;20116;-82
2023/04/20 03:55:54;;;;;;;6.90;3.95;;;;;;;;;;5074310;28;20055;-83
2023/04/20 03:58:20;;;;;;;11.65;3.92;;;;;;;;;;5073681;28;20063;-83
2023/04/20 04:00:48;;;;;;;5.53;3.63;;;;;;;;;;5075319;28;20043;-86
2023/04/20 04:03:14;;;;;;;7.80;4.18;;;;;;;;;;5075209;28;20086;-85
2023/04/20 04:05:40;;;;;;;6.78;4.18;;;;;;;;;;5077315;28;20028;-84
2023/04/20 04:08:06;;;;;;;7.53;4.13;;;;;;;;;;5073561;28;20040;-84
2023/04/20 04:10:31;;;;;;;5.72;3.70;;;;;;;;;;5073677;28;20033;-82
2023/04/20 04:12:57;;;;;;;5.40;3.95;;;;;;;;;;5074160;28;20029;-82
2023/04/20 04:15:22;;;;;;;8.85;4.18;;;;;;;;;;5075106;28;20021;-83
2023/04/20 04:17:48;;;;;;;6.93;4.30;;;;;;;;;;5073988;28;20027;-84
2023/04/20 04:20:14;;;;;;;9.25;4.53;;;;;;;;;;5073242;28;20099;-82
2023/04/20 04:22:40;;;;;;;4.75;2.30;;;;;;;;;;5073492;28;20024;-79
2023/04/20 04:25:06;;;;;;;6.57;4.22;;;;;;;;;;5072310;28;20025;-82
2023/04/20 04:27:33;;;;;;;5.60;3.13;;;;;;;;;;5072340;28;20029;-81
2023/04/20 04:30:03;;;;;;;7.22;4.68;;;;;;;;;;5074052;28;20020;-80
2023/04/20 04:32:29;;;;;;;7.85;4.68;;;;;;;;;;5073600;28;20456;-79
2023/04/20 04:34:54;;;;;;;7.97;4.65;;;;;;;;;;5070996;28;20038;-80
2023/04/20 04:37:20;;;;;;;9.70;4.55;;;;;;;;;;5070361;28;20377;-79
2023/04/20 04:39:46;;;;;;;8.32;5.38;;;;;;;;;;5072135;28;20033;-81
2023/04/20 04:42:11;;;;;;;3.55;2.25;;;;;;;;;;5072392;28;20387;-81
2023/04/20 04:44:38;;;;;;;7.13;4.20;;;;;;;;;;5072888;28;20101;-79
2023/04/20 04:47:04;;;;;;;7.88;4.63;;;;;;;;;;5072344;28;20043;-80
2023/04/20 04:49:34;;;;;;;7.00;4.07;;;;;;;;;;5072213;28;20032;-80
2023/04/20 04:52:00;;;;;;;13.90;7.68;;;;;;;;;;5071888;28;20024;-80
2023/04/20 04:54:25;;;;;;;9.82;4.85;;;;;;;;;;5072954;28;20044;-81
2023/04/20 04:56:51;;;;;;;11.02;4.97;;;;;;;;;;5073330;28;20056;-80
2023/04/20 04:59:16;;;;;;;8.02;5.00;;;;;;;;;;5070666;28;20028;-78
2023/04/20 05:01:42;;;;;;;7.53;3.85;;;;;;;;;;5072201;28;20032;-77
2023/04/20 05:04:07;;;;;;;5.05;3.33;;;;;;;;;;5072332;28;20025;-81
2023/04/20 05:06:33;;;;;;;3.25;1.85;;;;;;;;;;5072227;28;20024;-78
2023/04/20 05:08:58;;;;;;;7.88;4.43;;;;;;;;;;5071371;28;20028;-77
2023/04/20 05:11:24;;;;;;;7.90;4.95;;;;;;;;;;5072576;28;20115;-78
2023/04/20 05:13:49;;;;;;;6.43;3.95;;;;;;;;;;5071795;28;20032;-78
2023/04/20 05:16:15;;;;;;;7.95;4.38;;;;;;;;;;5073392;28;20034;-79
2023/04/20 05:18:40;;;;;;;5.25;3.53;;;;;;;;;;5072614;28;20111;-78
2023/04/20 05:21:05;;;;;;;6.18;3.90;;;;;;;;;;5071631;28;20451;-79
2023/04/20 05:23:31;;;;;;;7.38;4.28;;;;;;;;;;5068836;28;20028;-79
2023/04/20 05:25:57;;;;;;;6.60;4.38;;;;;;;;;;5070350;28;20472;-78
2023/04/20 05:28:22;;;;;;;4.45;3.33;;;;;;;;;;5072099;28;20384;-80
2023/04/20 05:30:48;;;;;;;7.63;4.30;;;;;;;;;;5071358;28;20089;-79
2023/04/20 05:33:13;;;;;;;7.05;4.80;;;;;;;;;;5072640;28;20066;-79
2023/04/20 05:35:39;;;;;;;9.68;5.18;;;;;;;;;;5070508;28;20033;-77
2023/04/20 05:38:05;;;;;;;8.65;4.25;;;;;;;;;;5070307;28;20052;-78
2023/04/20 05:40:33;;;;;;;10.85;5.95;;;;;;;;;;5072332;28;20388;-80
2023/04/20 05:42:59;;;;;;;7.22;5.25;;;;;;;;;;5063948;28;20024;-78
2023/04/20 05:45:25;;;;;;;8.35;4.75;;;;;;;;;;5068527;28;20048;-77
2023/04/20 05:47:54;;;;;;;7.15;3.72;;;;;;;;;;5066774;28;20032;-77
2023/04/20 05:50:20;;;;;;;6.20;3.60;;;;;;;;;;5069936;28;20040;-78
2023/04/20 05:52:45;;;;;;;7.97;4.97;;;;;;;;;;5070775;28;20028;-80
2023/04/20 05:55:11;;;;;;;8.15;4.07;;;;;;;;;;5069292;28;20032;-78
2023/04/20 05:57:41;;;;;;;7.82;4.25;;;;;;;;;;5071172;28;20454;-80
2023/04/20 06:00:11;;;;;;;6.85;4.03;;;;;;;;;;5068114;28;20032;-80
2023/04/20 06:02:37;;;;;;;9.27;5.35;;;;;;;;;;5071167;28;20048;-81
2023/04/20 06:05:03;;;;;;;6.00;3.60;;;;;;;;;;5068808;28;20074;-80
2023/04/20 06:07:28;;;;;;;9.50;4.50;;;;;;;;;;5069033;28;20028;-80
2023/04/20 06:09:54;;;;;;;8.95;4.72;;;;;;;;;;5069248;28;20114;-80
2023/04/20 06:12:19;;;;;;;6.38;3.92;;;;;;;;;;5068052;28;20454;-79
2023/04/20 06:14:45;;;;;;;5.90;3.60;;;;;;;;;;5069675;28;20491;-82
2023/04/20 06:17:10;;;;;;;9.48;5.60;;;;;;;;;;5069914;28;20070;-80
2023/04/20 06:19:35;;;;;;;7.13;4.63;;;;;;;;;;5067989;28;20169;-81
2023/04/20 06:22:06;;;;;;;8.50;4.45;;;;;;;;;;5070658;28;20464;-79
2023/04/20 06:24:31;;;;;;;8.25;5.30;;;;;;;;;;5067279;28;20032;-79
2023/04/20 06:26:57;;;;;;;9.27;5.38;;;;;;;;;;5067191;28;20031;-82
2023/04/20 06:29:23;;;;;;;7.22;4.38;;;;;;;;;;5068985;28;20423;-83
2023/04/20 06:31:48;;;;;;;7.10;4.07;;;;;;;;;;5070947;28;20032;-81
2023/04/20 06:34:13;;;;;;;8.07;4.95;;;;;;;;;;5069936;28;20054;-80
2023/04/20 06:36:42;;;;;;;8.13;4.53;;;;;;;;;;5070838;28;20016;-80
2023/04/20 06:39:08;;;;;;;9.88;5.05;;;;;;;;;;5070375;28;20042;-80
2023/04/20 06:41:33;;;;;;;8.25;4.35;;;;;;;;;;5071798;28;20028;-82
2023/04/20 06:43:59;;;;;;;13.00;4.47;;;;;;;;;;5069972;28;20369;-80
2023/04/20 06:46:24;;;;;;;6.60;4.72;;;;;;;;;;5070695;28;20040;-80
2023/04/20 06:48:50;;;;;;;5.50;4.20;;;;;;;;;;5071523;28;20028;-81
2023/04/20 06:51:15;;;;;;;7.35;4.40;;;;;;;;;;5071712;28;20055;-79
2023/04/20 06:53:40;;;;;;;8.30;4.97;;;;;;;;;;5069292;28;20024;-79
2023/04/20 06:56:06;;;;;;;8.35;4.43;;;;;;;;;;5069849;28;20029;-80
2023/04/20 06:58:32;;;;;;;7.47;3.80;;;;;;;;;;5067018;28;20056;-81
2023/04/20 07:00:57;;;;;;;10.65;5.20;;;;;;;;;;5070469;28;20024;-80
2023/04/20 07:03:23;;;;;;;7.82;5.68;;;;;;;;;;5070214;28;20054;-81
2023/04/20 07:05:48;;;;;;;5.95;4.07;;;;;;;;;;5069010;28;20028;-80
2023/04/20 07:08:16;;;;;;;5.03;4.18;;;;;;;;;;5069132;28;20029;-80
2023/04/20 07:10:42;;;;;;;8.95;4.18;;;;;;;;;;5068085;28;20039;-81
2023/04/20 07:13:07;;;;;;;5.15;3.22;;;;;;;;;;5071064;28;20025;-81
2023/04/20 07:15:33;;;;;;;3.67;2.88;;;;;;;;;;5069936;28;20032;-79
2023/04/20 07:17:58;;;;;;;5.35;2.83;;;;;;;;;;5068236;28;20099;-82
2023/04/20 07:20:23;;;;;;;8.98;3.30;;;;;;;;;;5069297;28;20016;-80
2023/04/20 07:22:49;;;;;;;6.38;3.53;;;;;;;;;;5069405;28;20024;-78
2023/04/20 07:25:16;;;;;;;7.40;4.10;;;;;;;;;;5070785;28;20040;-80
2023/04/20 07:27:41;;;;;;;6.35;3.17;;;;;;;;;;5068271;28;20476;-79
2023/04/20 07:30:08;;;;;;;8.85;5.10;;;;;;;;;;5071037;28;20028;-80
2023/04/20 07:32:34;;;;;;;7.80;5.18;;;;;;;;;;5070840;28;20063;-80
2023/04/20 07:34:59;;;;;;;7.97;4.07;;;;;;;;;;5069961;28;20106;-81
2023/04/20 07:37:26;;;;;;;7.95;3.20;;;;;;;;;;5071202;28;20020;-81
2023/04/20 07:39:52;;;;;;;7.97;2.92;;;;;;;;;;5068093;28;20423;-82
2023/04/20 07:42:18;;;;;;;8.00;4.80;;;;;;;;;;5070112;28;20101;-81
2023/04/20 07:44:43;;;;;;;7.65;4.00;;;;;;;;;;5069782;28;20041;-82
2023/04/20 07:47:09;;;;;;;5.85;2.72;;;;;;;;;;5069421;28;20032;-79
2023/04/20 07:49:39;;;;;;;7.88;3.67;;;;;;;;;;5069989;28;20101;-79
2023/04/20 07:52:05;;;;;;;8.70;3.92;;;;;;;;;;5069039;28;20039;-83
2023/04/20 07:54:31;;;;;;;6.50;3.22;;;;;;;;;;5068735;28;20025;-81
2023/04/20 07:56:57;;;;;;;7.85;5.03;;;;;;;;;;5070032;28;20017;-84
2023/04/20 07:59:23;;;;;;;6.72;3.72;;;;;;;;;;5070533;28;20028;-81
2023/04/20 08:01:49;;;;;;;6.95;3.97;;;;;;;;;;5068378;28;20032;-83
2023/04/20 08:04:15;;;;;;;5.30;3.03;;;;;;;;;;5068379;28;20058;-83
2023/04/20 08:19:09;;;;;;;8.27;4.82;;;;;;;;;;5067944;27;20419;-83
2023/04/20 08:21:41;;;;;;;8.05;4.80;;;;;;;;;;5068735;28;20074;-80
2023/04/20 08:24:07;;;;;;;5.40;2.80;;;;;;;;;;5064799;28;20055;-80
2023/04/20 08:26:32;;;;;;;3.67;2.97;;;;;;;;;;5064941;28;20082;-80
2023/04/20 08:28:59;;;;;;;4.13;2.92;;;;;;;;;;5067591;28;20032;-79
2023/04/20 08:31:25;;;;;;;6.20;3.58;;;;;;;;;;5065267;28;20133;-80
2023/04/20 08:33:50;;;;;;;7.40;3.75;;;;;;;;;;5065593;28;20124;-80
2023/04/20 08:36:17;;;;;;;5.43;3.35;;;;;;;;;;5065016;28;20036;-79
2023/04/20 08:38:42;;;;;;;8.45;4.90;;;;;;;;;;5066492;28;20510;-81
2023/04/20 08:41:07;;;;;;;4.93;3.30;;;;;;;;;;5065228;28;20159;-79
2023/04/20 08:43:33;;;;;;;9.70;4.50;;;;;;;;;;5064264;28;20033;-81
2023/04/20 08:46:03;;;;;;;3.33;2.53;;;;;;;;;;5067494;28;20024;-84
2023/04/20 08:48:35;;;;;;;4.40;3.53;;;;;;;;;;5065324;28;20078;-80
2023/04/20 08:51:02;;;;;;;8.15;4.13;;;;;;;;;;5065844;28;20369;-79
2023/04/20 08:53:28;;;;;;;4.88;3.22;;;;;;;;;;5067161;28;20472;-80
2023/04/20 08:55:56;;;;;;;5.53;3.78;;;;;;;;;;5065898;28;20716;-81
2023/04/20 08:58:23;;;;;;;8.85;4.70;;;;;;;;;;5066445;28;21239;-80
2023/04/20 09:00:49;;;;;;;7.00;3.58;;;;;;;;;;5067224;28;20028;-81
2023/04/20 09:03:14;;;;;;;5.05;3.40;;;;;;;;;;5067026;28;20040;-79
2023/04/20 09:05:40;;;;;;;8.75;4.47;;;;;;;;;;5065377;28;20035;-81
2023/04/20 09:08:07;;;;;;;5.95;3.60;;;;;;;;;;5067077;28;20115;-79
2023/04/20 09:10:43;;;;;;;8.95;4.65;;;;;;;;;;5065722;28;20040;-81
2023/04/20 09:13:20;;;;;;;8.68;4.38;;;;;;;;;;5066336;28;20041;-80
2023/04/20 09:15:46;;;;;;;5.45;4.20;;;;;;;;;;5065960;28;20031;-78
2023/04/20 09:18:13;;;;;;;6.38;4.13;;;;;;;;;;5063957;28;20041;-81
2023/04/20 09:20:39;;;;;;;4.22;2.65;;;;;;;;;;5055229;28;20407;-81
2023/04/20 09:23:16;;;;;;;5.50;3.80;;;;;;;;;;5055514;28;20074;-80
2023/04/20 09:25:42;;;;;;;6.07;3.72;;;;;;;;;;5057613;28;20114;-80
2023/04/20 09:28:08;;;;;;;6.80;4.68;;;;;;;;;;5056770;28;20448;-80
2023/04/20 09:30:45;;;;;;;6.90;2.72;;;;;;;;;;5052753;28;20029;-84
2023/04/20 09:33:13;;;;;;;4.25;3.22;;;;;;;;;;5051081;28;20469;-80
2023/04/20 09:35:40;;;;;;;6.20;3.83;;;;;;;;;;5051658;28;20029;-79
2023/04/20 09:38:07;;;;;;;4.55;3.38;;;;;;;;;;5053648;28;20029;-80
2023/04/20 09:40:33;;;;;;;5.20;3.60;;;;;;;;;;5049662;28;20036;-81
2023/04/20 09:43:04;;;;;;;4.25;3.35;;;;;;;;;;5052160;28;20041;-79
2023/04/20 09:45:30;;;;;;;9.25;4.40;;;;;;;;;;5051399;28;20029;-80
2023/04/20 09:47:56;;;;;;;4.90;3.03;;;;;;;;;;5054493;28;20495;-79
2023/04/20 09:50:22;;;;;;;5.10;3.28;;;;;;;;;;5054174;28;20033;-78
2023/04/20 09:52:48;;;;;;;5.85;3.50;;;;;;;;;;5052971;28;20063;-81
2023/04/20 09:55:14;;;;;;;6.63;3.90;;;;;;;;;;5054940;28;20477;-82
2023/04/20 09:57:40;;;;;;;7.00;4.28;;;;;;;;;;5053024;28;20031;-83
2023/04/20 10:00:09;;;;;;;14.77;4.28;;;;;;;;;;5054397;28;20053;-80
2023/04/20 10:02:35;;;;;;;5.83;3.53;;;;;;;;;;5049268;28;20472;-80
2023/04/20 10:05:01;;;;;;;5.85;3.40;;;;;;;;;;5052674;28;20269;-80
2023/04/20 10:07:28;;;;;;;6.03;3.38;;;;;;;;;;5052633;28;20376;-80
2023/04/20 10:10:11;;;;;;;4.28;2.65;;;;;;;;;;5053078;28;20043;-81
2023/04/20 10:12:46;;;;;;;6.00;3.90;;;;;;;;;;5050119;28;20031;-83
2023/04/20 10:15:11;;;;;;;5.05;3.47;;;;;;;;;;5051428;28;20032;-80
2023/04/20 10:17:37;;;;;;;3.58;2.88;;;;;;;;;;5050383;28;20427;-82
2023/04/20 10:20:03;;;;;;;7.20;3.95;;;;;;;;;;5051372;28;20483;-81
2023/04/20 10:22:33;;;;;;;5.30;3.58;;;;;;;;;;5051189;28;20028;-80
2023/04/20 10:25:00;;;;;;;7.20;4.32;;;;;;;;;;5051106;28;20025;-79
2023/04/20 10:27:26;;;;;;;5.20;3.95;;;;;;;;;;5052071;28;20017;-80
2023/04/20 10:29:51;;;;;;;5.18;3.20;;;;;;;;;;5048278;28;20091;-78
2023/04/20 10:32:27;;;;;;;5.45;3.28;;;;;;;;;;5052065;28;20043;-79
2023/04/20 10:35:01;;;;;;;4.50;3.25;;;;;;;;;;5049567;28;20027;-79
2023/04/20 10:37:27;;;;;;;6.85;3.78;;;;;;;;;;5048394;28;20079;-77
2023/04/20 10:39:53;;;;;;;6.30;3.75;;;;;;;;;;5047756;28;20075;-78
2023/04/20 10:42:18;;;;;;;5.28;3.78;;;;;;;;;;5048418;28;20495;-78
2023/04/20 10:44:51;;;;;;;7.15;4.05;;;;;;;;;;5050310;28;20035;-78
2023/04/20 10:47:25;;;;;;;5.55;3.42;;;;;;;;;;5051008;28;20480;-78
2023/04/20 10:49:50;;;;;;;5.65;4.15;;;;;;;;;;5049090;28;20043;-77
2023/04/20 10:52:16;;;;;;;6.72;3.33;;;;;;;;;;5051805;28;20025;-77
2023/04/20 10:54:41;;;;;;;3.83;3.00;;;;;;;;;;5049234;28;20025;-77
2023/04/20 10:57:07;;;;;;;5.43;3.38;;;;;;;;;;5051432;28;20112;-79
2023/04/20 10:59:40;;;;;;;5.65;2.97;;;;;;;;;;5049808;28;20044;-79
2023/04/20 11:02:07;;;;;;;6.20;4.30;;;;;;;;;;5051412;28;20029;-78
2023/04/20 11:04:33;;;;;;;5.93;2.72;;;;;;;;;;5051768;28;20039;-78
2023/04/20 11:07:12;;;;;;;7.95;4.38;;;;;;;;;;5048248;28;20144;-78
2023/04/20 11:09:38;;;;;;;6.03;3.63;;;;;;;;;;5051078;28;20032;-80
2023/04/20 11:12:14;;;;;;;4.82;3.58;;;;;;;;;;5051003;28;20059;-78
2023/04/20 11:14:53;;;;;;;3.78;2.50;;;;;;;;;;5051318;28;20074;-78
2023/04/20 11:17:29;;;;;;;3.13;2.35;;;;;;;;;;5081283;28;20072;-77
2023/04/20 11:20:04;;;;;;;4.50;3.30;;;;;;;;;;5049270;28;20041;-80
2023/04/20 11:22:30;;;;;;;3.60;2.63;;;;;;;;;;5050852;28;20113;-77
2023/04/20 11:25:09;;;;;;;4.13;3.03;;;;;;;;;;5049215;28;20024;-79
2023/04/20 11:27:36;;;;;;;4.45;3.10;;;;;;;;;;5049817;28;20036;-78
2023/04/20 11:30:06;;;;;;;5.00;3.72;;;;;;;;;;5050235;28;20606;-81
2023/04/20 11:32:33;;;;;;;11.30;4.20;;;;;;;;;;5048699;28;20032;-77
2023/04/20 11:35:06;;;;;;;3.75;2.60;;;;;;;;;;5051125;28;20039;-78
2023/04/20 11:37:32;;;;;;;5.70;3.40;;;;;;;;;;5051293;28;20028;-78
2023/04/20 11:40:03;;;;;;;7.32;3.03;;;;;;;;;;5049571;28;20090;-77
2023/04/20 11:42:29;;;;;;;4.05;2.88;;;;;;;;;;5049270;28;20111;-78
2023/04/20 11:44:55;;;;;;;4.10;2.90;;;;;;;;;;5045513;28;20540;-79
2023/04/20 11:47:20;;;;;;;4.00;2.50;;;;;;;;;;5049920;28;20087;-78
2023/04/20 11:49:45;;;;;;;4.15;2.30;;;;;;;;;;5050647;28;20032;-78
2023/04/20 11:52:11;;;;;;;3.83;2.83;;;;;;;;;;5051374;28;20542;-79
2023/04/20 11:54:36;;;;;;;4.53;2.85;;;;;;;;;;5050409;28;20029;-78
2023/04/20 11:57:02;;;;;;;5.60;3.05;;;;;;;;;;5050617;28;20021;-78
2023/04/20 11:59:27;;;;;;;4.45;2.78;;;;;;;;;;5050359;28;20028;-78
2023/04/20 12:01:53;;;;;;;3.08;1.98;;;;;;;;;;5049303;28;20460;-77
2023/04/20 12:04:18;;;;;;;4.65;2.25;;;;;;;;;;5050814;28;20056;-78
2023/04/20 12:06:44;;;;;;;5.80;3.35;;;;;;;;;;5050725;28;20060;-77
2023/04/20 12:09:09;;;;;;;3.55;2.38;;;;;;;;;;5050462;28;20423;-77
2023/04/20 12:11:35;;;;;;;4.05;2.17;;;;;;;;;;5050980;28;20029;-77
2023/04/20 12:14:00;;;;;;;4.60;3.15;;;;;;;;;;5050368;28;20067;-80
2023/04/20 12:16:26;;;;;;;3.33;2.58;;;;;;;;;;5049012;28;20412;-80
2023/04/20 12:18:51;;;;;;;3.85;2.25;;;;;;;;;;5049670;28;20507;-79
2023/04/20 12:21:16;;;;;;;4.90;2.15;;;;;;;;;;5050588;28;20040;-79
2023/04/20 12:23:43;;;;;;;3.58;2.33;;;;;;;;;;5049234;28;20020;-79
2023/04/20 12:26:09;;;;;;;3.03;2.10;;;;;;;;;;5050707;28;20487;-79
2023/04/20 12:28:34;;;;;;;5.45;3.22;;;;;;;;;;5050257;28;20057;-80
2023/04/20 12:31:01;;;;;;;4.70;3.38;;;;;;;;;;5049753;28;20037;-79
2023/04/20 12:33:26;;;;;;;4.05;2.83;;;;;;;;;;5046215;28;20029;-81
2023/04/20 12:35:52;;;;;;;3.97;2.92;;;;;;;;;;5049171;28;20098;-81
2023/04/20 12:38:17;;;;;;;5.88;3.42;;;;;;;;;;5047065;28;20104;-80
2023/04/20 12:40:43;;;;;;;5.85;4.03;;;;;;;;;;5048238;28;20059;-80
2023/04/20 12:43:08;;;;;;;6.63;3.53;;;;;;;;;;5050255;28;20079;-81
2023/04/20 12:45:34;;;;;;;6.18;4.18;;;;;;;;;;5048515;28;20025;-80
2023/04/20 12:48:03;;;;;;;7.97;3.67;;;;;;;;;;5052184;28;20032;-81
2023/04/20 12:50:28;;;;;;;7.47;4.43;;;;;;;;;;5049607;28;20039;-81
2023/04/20 12:53:01;;;;;;;5.57;3.95;;;;;;;;;;5046866;28;20025;-80
2023/04/20 12:55:26;;;;;;;7.28;4.68;;;;;;;;;;5055056;28;20052;-81
2023/04/20 12:57:52;;;;;;;5.75;4.18;;;;;;;;;;5053345;28;20064;-81
2023/04/20 13:00:18;;;;;;;9.88;5.18;;;;;;;;;;5054466;28;20021;-82
2023/04/20 13:02:43;;;;;;;7.20;3.88;;;;;;;;;;5053129;28;20021;-79
2023/04/20 13:05:09;;;;;;;6.53;4.25;;;;;;;;;;5053761;28;20123;-79
2023/04/20 13:07:34;;;;;;;6.80;3.90;;;;;;;;;;5051570;28;20021;-81
2023/04/20 13:10:00;;;;;;;5.95;3.60;;;;;;;;;;5053080;28;20033;-80
2023/04/20 13:12:25;;;;;;;5.05;4.03;;;;;;;;;;5053878;28;20070;-80
2023/04/20 13:14:51;;;;;;;6.50;3.42;;;;;;;;;;5052681;28;20353;-80
2023/04/20 13:17:17;;;;;;;4.68;3.00;;;;;;;;;;5051499;28;20031;-80
2023/04/20 13:19:45;;;;;;;5.03;3.50;;;;;;;;;;5052467;28;20041;-80
2023/04/20 13:22:10;;;;;;;4.97;3.58;;;;;;;;;;5052069;28;20029;-82
2023/04/20 13:24:35;;;;;;;5.68;3.60;;;;;;;;;;5050769;28;20039;-80
2023/04/20 13:27:01;;;;;;;3.83;2.67;;;;;;;;;;5051349;28;20017;-80
2023/04/20 13:29:27;;;;;;;5.15;3.25;;;;;;;;;;5045903;28;20036;-80
2023/04/20 13:31:52;;;;;;;4.88;3.47;;;;;;;;;;5049796;28;20025;-82
2023/04/20 13:34:18;;;;;;;4.22;3.13;;;;;;;;;;5050107;28;20033;-82
2023/04/20 13:36:44;;;;;;;4.75;2.40;;;;;;;;;;5049015;28;20033;-82
2023/04/20 13:39:11;;;;;;;7.10;3.00;;;;;;;;;;5050912;28;20419;-80
2023/04/20 13:41:37;;;;;;;4.13;2.33;;;;;;;;;;5050405;28;20029;-80
2023/04/20 13:44:03;;;;;;;6.43;3.33;;;;;;;;;;5051564;28;20543;-82
2023/04/20 13:46:30;;;;;;;4.25;2.55;;;;;;;;;;5052360;28;20050;-80
2023/04/20 13:48:55;;;;;;;5.28;3.15;;;;;;;;;;5051971;28;20049;-81
2023/04/20 13:51:20;;;;;;;6.13;2.50;;;;;;;;;;5051525;28;20868;-80
2023/04/20 13:53:49;;;;;;;3.03;2.10;;;;;;;;;;5053005;28;20037;-82
2023/04/20 13:56:15;;;;;;;5.10;2.58;;;;;;;;;;5049111;28;20033;-82
2023/04/20 13:58:41;;;;;;;4.13;2.22;;;;;;;;;;5045731;28;20476;-80
2023/04/20 14:01:16;;;;;;;3.92;2.10;;;;;;;;;;5053543;28;20024;-83
2023/04/20 14:03:42;;;;;;;4.10;2.58;;;;;;;;;;5050632;28;20047;-82
2023/04/20 14:06:07;;;;;;;4.53;2.30;;;;;;;;;;5051540;28;20532;-82
2023/04/20 14:08:33;;;;;;;5.65;2.45;;;;;;;;;;5049683;28;20412;-80
2023/04/20 14:10:58;;;;;;;4.07;2.90;;;;;;;;;;5052246;28;20124;-82
2023/04/20 14:13:24;;;;;;;3.90;2.33;;;;;;;;;;5049221;28;20040;-82
2023/04/20 14:15:50;;;;;;;2.90;2.45;;;;;;;;;;5052053;28;20025;-81
2023/04/20 14:18:15;;;;;;;3.25;2.40;;;;;;;;;;5052361;28;20048;-80
2023/04/20 14:20:41;;;;;;;6.88;2.55;;;;;;;;;;5052786;28;20028;-80
2023/04/20 14:23:06;;;;;;;4.90;2.75;;;;;;;;;;5052320;28;20036;-79
2023/04/20 14:25:32;;;;;;;4.95;2.55;;;;;;;;;;5051261;28;20048;-78
2023/04/20 14:27:57;;;;;;;5.88;2.92;;;;;;;;;;5052411;28;20025;-79
2023/04/20 14:30:23;;;;;;;4.20;2.70;;;;;;;;;;5052073;28;20041;-79
2023/04/20 14:32:55;;;;;;;4.93;2.80;;;;;;;;;;5052223;28;20475;-79
2023/04/20 14:35:22;;;;;;;5.15;2.55;;;;;;;;;;5051042;28;20025;-79
2023/04/20 14:37:47;;;;;;;7.70;3.38;;;;;;;;;;5052514;28;20021;-78
2023/04/20 14:40:13;;;;;;;3.95;2.17;;;;;;;;;;5050159;28;20079;-78
2023/04/20 14:42:38;;;;;;;5.32;3.15;;;;;;;;;;5051239;28;20028;-79
2023/04/20 14:45:04;;;;;;;5.15;2.83;;;;;;;;;;5052452;28;20083;-78
2023/04/20 14:47:29;;;;;;;3.95;2.63;;;;;;;;;;5049204;28;20025;-79
2023/04/20 14:49:55;;;;;;;4.30;2.55;;;;;;;;;;5051130;28;20443;-79